Главная страница
METAR-TAF:

METAR-TAF

Аэропорты :

Днепропетровск, Украина

широта: 48-21-26N, долгота: 035-06-02E, высота над уровнем моря: 147 м

Текущие метеонаблюдения

Эта сводка был подготовлена 25 минут назад, в 23:00 UTC
Ветер 12 Узел от восточный
Температура -5°C
Влажность 86%
Давление 1028 hPa
Видимость 10 км и более
Сплошная облачность на высоте 900 фута

METAR: UKDD 182300Z 09006MPS 9999 OVC009 M05/M07 Q1028 R08/090070 NOSIG

Время: 01:25 (23:25 UTC)

Прогноз

Эта сводка был подготовлена 6 часа и 20 минут назад, в 17:05 UTC
Прогноз действительный с 18-го 18 UTC до 19-го 18 UTC
Ветер 12 Узел от восточно-северо-восточный
Видимость: 3100 м
Сплошная облачность на высоте 600 фута
дымка
временами
С 18-го 18 UTC до 19-го 18 UTC
Ветер 14 Узел от восточный с порывами до 23 Узел
Видимость: 1100 м
Рассеянная облачность на высоте 300 фута
снег, дымка

TAF: UKDD 181705Z 1818/1918 06006MPS 3100 BR OVC006 TXM02/1912Z TNM06/1902Z TEMPO 1818/1918 08007G12MPS 1100 SN BR BKN003

Метеонаблюдения и прогнозы для более 4000 аэропортов (сводки METAR и TAF).

Имеющиеся станции представлены на карте желтыми и красными точками.

Чтобы увидеть название станции, наведите на нее мышь.

Затем щелкните, чтобы увидеть метеонаблюдения и метеопрогнозы.

Управление картой: чтобы увеличить масштаб, щелкните зеленые кнопки с черным крестиком; чтобы уменьшить масштаб, щелкните зеленую кнопку с тире; для просмотра соседних карт щелкайте зеленые стрелки.


METAR-TAF: